VIAR/ATQ METAR and TAF weather

Enter ICAO airport designator
Station Type Date Time Source
VIAR METAR 2020/09/22 08:30 UTC NOAA

VIAR 220830Z VRB02KT 5000 HZ NSC 35/24 Q1002 NOSIG


Station Type Date Time Source
VIAR Decoded METAR 2020/09/22 08:30 UTC NOAA

Amritsar, India (VIAR) 31-38N 074-52E 234M
Sep 22, 2020 - 04:30 AM EDT / 2020.09.22 0830 UTC
Wind: Variable at 2 MPH (2 KT):0
Visibility: 3 mile(s):0
Weather: haze
Temperature: 95 F (35 C)
Heat index: 107.4 F (41.9 C):1
Dew Point: 75 F (24 C)
Relative Humidity: 53%
Pressure (altimeter): 29.59 in. Hg (1002 hPa)
ob: VIAR 220830Z VRB02KT 5000 HZ NSC 35/24 Q1002 NOSIG
cycle: 8

Station Type Date Time Source
VIAR TAF 2020/09/22 06:18 UTC NOAA

TAF TAF VIAR 220500Z 2206/2312 VRB02KT 4000 HZ FEW040
BECMG 2208/2210 1104KT 6000 SCT025
BECMG 2215/2217 VRB02KT 4000 BR FEW040
BECMG 2223/2301 00000KT 3000 BR NSC
BECMG 2304/2306 13004KT 5000 HZ FEW040 SCT100

Example: see airport list